Pahala, Hawaii
Current Conditions -  °F | °C
As of 9:56 PM on Tuesday 21 Oct 2014 (Local Time) from PHSF Reporting Station
Clear Clear  
Wind Chill: 11°   Ceiling: Unl
Heat Index: 11°   Visibility: 10mi
Dew Point: 10°   Wind: 5mph
Humidity: 92%   Direction: 120°ESE
Pressure: 30.37"   Gusts: NA
Location:  19.2°N, 155.47°W
Report Text: PHSF 220756Z AUTO 12004KT 10SM CLR 11/10 A3037 RMK AO2 SLP171 T01110098 $
Loading
Personal Weather Stations






























Interactive Weather Map
Tropical Storm Tracking
New forecast layout! Learn more

10-Day Weather Forecast

Advertisements
Track Severe Weather on mobile